createdAt,value
2019-03-18T00:01:27.342Z,51.40
2019-03-18T00:03:57.496Z,51.60
2019-03-18T00:06:27.626Z,51.50
2019-03-18T00:08:58.019Z,50.30
2019-03-18T00:11:28.436Z,50.30
2019-03-18T00:13:58.510Z,50.20
2019-03-18T00:16:28.566Z,50.70
2019-03-18T00:18:58.696Z,50.70
2019-03-18T00:21:28.833Z,50.00
2019-03-18T00:23:58.820Z,50.00
2019-03-18T00:26:28.942Z,50.00
2019-03-18T00:28:59.008Z,50.20
2019-03-18T00:31:29.004Z,50.30
2019-03-18T00:34:00.033Z,50.30
2019-03-18T00:36:30.033Z,50.80
2019-03-18T00:39:00.161Z,50.60
2019-03-18T00:41:30.230Z,50.30
2019-03-18T00:44:00.614Z,50.50
2019-03-18T00:46:31.142Z,51.00
2019-03-18T00:49:01.470Z,50.80
2019-03-18T00:51:31.480Z,50.90
2019-03-18T00:54:01.464Z,50.70
2019-03-18T00:56:31.934Z,50.70
2019-03-18T00:59:01.917Z,50.50
2019-03-18T01:01:31.919Z,50.80
2019-03-18T01:04:03.521Z,50.70
2019-03-18T01:06:33.656Z,51.00
2019-03-18T01:09:04.493Z,51.50
2019-03-18T01:11:34.669Z,50.60
2019-03-18T01:14:05.084Z,51.40
2019-03-18T01:16:36.464Z,51.60
2019-03-18T01:19:06.536Z,51.40
2019-03-18T01:21:36.602Z,50.90
2019-03-18T01:24:06.723Z,51.30
2019-03-18T01:26:36.857Z,51.50
2019-03-18T01:29:06.930Z,51.60
2019-03-18T01:31:36.987Z,51.40
2019-03-18T01:34:07.305Z,51.80
2019-03-18T01:36:37.435Z,51.60
2019-03-18T01:39:07.571Z,51.60
2019-03-18T01:41:37.582Z,51.30
2019-03-18T01:44:07.712Z,51.20
2019-03-18T01:46:37.760Z,51.20
2019-03-18T01:49:07.826Z,51.00
2019-03-18T01:51:37.964Z,51.40
2019-03-18T01:54:07.962Z,51.60
2019-03-18T01:56:38.101Z,51.60
2019-03-18T01:59:08.152Z,51.30
2019-03-18T02:01:38.157Z,51.50
2019-03-18T02:04:08.205Z,51.40
2019-03-18T02:06:38.277Z,50.60
2019-03-18T02:09:08.768Z,50.40
2019-03-18T02:11:39.204Z,50.50
2019-03-18T02:14:09.257Z,51.00
2019-03-18T02:16:39.322Z,50.80
2019-03-18T02:19:09.385Z,51.20
2019-03-18T02:21:39.395Z,51.20
2019-03-18T02:24:09.373Z,51.50
2019-03-18T02:26:39.858Z,51.40
2019-03-18T02:29:10.246Z,51.60
2019-03-18T02:31:40.490Z,51.40
2019-03-18T02:34:10.900Z,51.70
2019-03-18T02:36:41.213Z,51.80
2019-03-18T02:39:11.646Z,52.00
2019-03-18T02:41:41.801Z,52.30
2019-03-18T02:44:11.939Z,52.00
2019-03-18T02:46:42.828Z,51.50
2019-03-18T02:49:12.970Z,51.10
2019-03-18T02:51:42.969Z,51.10
2019-03-18T02:54:13.037Z,51.40
2019-03-18T02:56:43.043Z,51.80
2019-03-18T02:59:13.213Z,51.90
2019-03-18T03:01:44.336Z,51.90
2019-03-18T03:04:14.391Z,52.10
2019-03-18T03:06:44.901Z,52.20
2019-03-18T03:09:15.158Z,52.20
2019-03-18T03:11:45.218Z,52.00
2019-03-18T03:14:15.281Z,52.40
2019-03-18T03:16:45.288Z,51.90
2019-03-18T03:19:15.754Z,52.40
2019-03-18T03:21:45.776Z,52.10
2019-03-18T03:24:15.769Z,52.20
2019-03-18T03:26:45.917Z,52.70
2019-03-18T03:29:15.991Z,53.10
2019-03-18T03:31:46.440Z,53.60
2019-03-18T03:34:16.414Z,53.60
2019-03-18T03:36:46.418Z,54.10
2019-03-18T03:39:16.481Z,54.60
2019-03-18T03:41:46.625Z,55.10
2019-03-18T03:44:16.690Z,55.40
2019-03-18T03:46:47.126Z,55.50
2019-03-18T03:49:17.194Z,55.60
2019-03-18T03:51:47.297Z,55.70
2019-03-18T03:54:17.431Z,55.70
2019-03-18T03:56:47.802Z,56.00
2019-03-18T03:59:18.246Z,56.00
2019-03-18T04:01:48.416Z,56.20
2019-03-18T04:04:18.671Z,56.40
2019-03-18T04:06:48.807Z,56.50
2019-03-18T04:09:19.216Z,56.60
2019-03-18T04:11:49.550Z,56.60
2019-03-18T04:14:19.694Z,56.70
2019-03-18T04:17:01.891Z,56.80
2019-03-18T04:19:22.169Z,57.10
2019-03-18T04:21:52.299Z,57.30
2019-03-18T04:24:22.403Z,57.50
2019-03-18T04:26:52.831Z,58.30
2019-03-18T04:29:23.513Z,57.80
2019-03-18T04:31:54.002Z,57.70
2019-03-18T04:34:23.998Z,57.80
2019-03-18T04:36:54.533Z,57.90
2019-03-18T04:39:24.674Z,57.90
2019-03-18T04:41:54.749Z,58.20
2019-03-18T04:44:24.881Z,57.90
2019-03-18T04:46:55.028Z,58.20
2019-03-18T04:49:25.441Z,58.00
2019-03-18T04:51:55.586Z,58.10
2019-03-18T04:54:25.668Z,58.10
2019-03-18T04:56:56.113Z,58.00
2019-03-18T04:59:26.250Z,58.30
2019-03-18T05:01:56.456Z,58.20
2019-03-18T05:04:26.977Z,57.70
2019-03-18T05:06:57.411Z,57.10
2019-03-18T05:09:27.477Z,57.10
2019-03-18T05:11:57.473Z,57.40
2019-03-18T05:14:27.865Z,57.20
2019-03-18T05:16:57.991Z,58.10
2019-03-18T05:19:28.052Z,57.30
2019-03-18T05:21:58.429Z,55.50
2019-03-18T05:24:28.843Z,54.20
2019-03-18T05:26:59.282Z,55.00
2019-03-18T05:29:29.705Z,53.50
2019-03-18T05:31:59.768Z,53.40
2019-03-18T05:34:29.829Z,53.20
2019-03-18T05:36:59.956Z,53.40
2019-03-18T05:39:30.093Z,52.60
2019-03-18T05:42:00.513Z,51.90
2019-03-18T05:44:30.669Z,51.70
2019-03-18T05:47:00.723Z,53.60
2019-03-18T05:49:30.775Z,52.60
2019-03-18T05:52:00.830Z,54.00
2019-03-18T05:54:30.948Z,54.10
2019-03-18T05:57:01.329Z,53.60
2019-03-18T05:59:31.862Z,51.80
2019-03-18T06:02:01.916Z,52.90
2019-03-18T06:04:32.036Z,50.90
2019-03-18T06:07:02.092Z,53.10
2019-03-18T06:09:32.442Z,52.40
2019-03-18T06:12:02.501Z,53.10
2019-03-18T06:14:32.886Z,52.70
2019-03-18T06:17:02.886Z,54.40
2019-03-18T06:19:32.861Z,52.70
2019-03-18T06:22:03.041Z,53.20
2019-03-18T06:24:33.160Z,50.40
2019-03-18T06:27:03.229Z,51.00
2019-03-18T06:29:33.363Z,53.40
2019-03-18T06:32:03.741Z,53.30
2019-03-18T06:34:33.859Z,50.90
2019-03-18T06:37:03.843Z,49.70
2019-03-18T06:39:33.835Z,52.30
2019-03-18T06:42:04.202Z,51.70
2019-03-18T06:44:34.396Z,52.90
2019-03-18T06:47:04.857Z,53.30
2019-03-18T06:49:35.054Z,48.40
2019-03-18T06:52:05.269Z,48.00
2019-03-18T06:54:35.363Z,47.60
2019-03-18T06:57:05.341Z,47.40
2019-03-18T06:59:35.478Z,46.60
2019-03-18T07:02:05.552Z,48.00
2019-03-18T07:04:35.611Z,46.70
2019-03-18T07:07:05.973Z,50.70
2019-03-18T07:09:36.089Z,52.30
2019-03-18T07:12:06.084Z,47.90
2019-03-18T07:14:36.075Z,47.90
2019-03-18T07:17:06.138Z,48.10
2019-03-18T07:19:36.605Z,46.40
2019-03-18T07:22:06.598Z,47.30
2019-03-18T07:24:36.645Z,45.60
2019-03-18T07:27:07.173Z,45.00
2019-03-18T07:29:37.292Z,47.50
2019-03-18T07:32:07.488Z,47.10
2019-03-18T07:34:37.673Z,51.10
2019-03-18T07:37:07.669Z,48.90
2019-03-18T07:39:37.801Z,49.90
2019-03-18T07:42:07.928Z,48.40
2019-03-18T07:44:37.992Z,48.90
2019-03-18T07:47:08.041Z,46.90
2019-03-18T07:49:38.029Z,48.90
2019-03-18T07:52:08.155Z,49.30
2019-03-18T07:54:38.493Z,49.50
2019-03-18T07:57:08.614Z,47.20
2019-03-18T07:59:38.676Z,48.50
2019-03-18T08:02:08.742Z,48.00
2019-03-18T08:04:38.764Z,47.70
2019-03-18T08:07:08.809Z,50.60
2019-03-18T08:09:38.947Z,51.40
2019-03-18T08:12:09.074Z,51.30
2019-03-18T08:14:40.359Z,49.10
2019-03-18T08:17:10.494Z,50.90
2019-03-18T08:19:41.124Z,51.80
2019-03-18T08:22:11.190Z,50.60
2019-03-18T08:24:42.313Z,50.30
2019-03-18T08:27:12.381Z,49.10
2019-03-18T08:29:42.509Z,49.70
2019-03-18T08:32:12.565Z,49.40
2019-03-18T08:34:42.897Z,47.50
2019-03-18T08:37:12.959Z,46.10
2019-03-18T08:39:43.913Z,46.10
2019-03-18T08:42:14.017Z,47.70
2019-03-18T08:44:44.134Z,47.00
2019-03-18T08:47:14.130Z,48.00
2019-03-18T08:49:44.127Z,47.30
2019-03-18T08:52:14.122Z,47.20
2019-03-18T08:54:44.249Z,46.60
2019-03-18T08:57:14.314Z,48.10
2019-03-18T08:59:44.773Z,50.00
2019-03-18T09:02:14.829Z,51.20
2019-03-18T09:04:44.917Z,50.70
2019-03-18T09:07:14.911Z,50.40
2019-03-18T09:09:45.045Z,51.50
2019-03-18T09:12:15.044Z,50.10
2019-03-18T09:14:45.163Z,50.00
2019-03-18T09:17:15.227Z,49.20
2019-03-18T09:19:45.276Z,47.80
2019-03-18T09:22:15.745Z,47.00
2019-03-18T09:24:45.799Z,48.20
2019-03-18T09:27:15.868Z,49.40
2019-03-18T09:29:46.310Z,48.20
2019-03-18T09:32:16.387Z,48.90
2019-03-18T09:34:46.457Z,48.30
2019-03-18T09:37:16.515Z,48.90
2019-03-18T09:39:46.645Z,49.70
2019-03-18T09:42:18.059Z,47.90
2019-03-18T09:44:48.315Z,47.70
2019-03-18T09:47:18.389Z,48.00
2019-03-18T09:49:48.440Z,49.60
2019-03-18T09:52:18.514Z,49.40
2019-03-18T09:54:48.632Z,48.30
2019-03-18T09:57:25.923Z,48.00
2019-03-18T09:59:51.021Z,48.10
2019-03-18T10:02:21.217Z,46.50
2019-03-18T10:04:51.273Z,46.10
2019-03-18T10:07:21.261Z,47.30
2019-03-18T10:09:51.706Z,46.60
2019-03-18T10:12:21.761Z,46.20
2019-03-18T10:14:51.826Z,46.60
2019-03-18T10:17:22.270Z,48.10
2019-03-18T10:19:53.524Z,48.20
2019-03-18T10:22:23.775Z,46.20
2019-03-18T10:24:54.146Z,48.70
2019-03-18T10:27:24.588Z,46.00
2019-03-18T10:29:54.679Z,47.40
2019-03-18T10:32:24.741Z,45.50
2019-03-18T10:34:54.740Z,46.60
2019-03-18T10:37:24.806Z,43.40
2019-03-18T10:39:55.190Z,43.00
2019-03-18T10:42:25.540Z,42.90
2019-03-18T10:44:55.674Z,43.10
2019-03-18T10:47:25.665Z,43.50
2019-03-18T10:49:55.782Z,42.40
2019-03-18T10:52:25.937Z,42.20
2019-03-18T10:54:56.454Z,42.60
2019-03-18T10:57:26.543Z,43.60
2019-03-18T10:59:56.674Z,44.10
2019-03-18T11:02:26.705Z,44.40
2019-03-18T11:04:56.892Z,45.10
2019-03-18T11:07:26.953Z,45.10
2019-03-18T11:09:57.017Z,45.70
2019-03-18T11:12:27.293Z,45.20
2019-03-18T11:14:57.356Z,45.10
2019-03-18T11:17:27.481Z,45.20
2019-03-18T11:19:58.940Z,45.30
2019-03-18T11:22:29.020Z,45.80
2019-03-18T11:24:59.087Z,45.60
2019-03-18T11:27:29.216Z,44.80
2019-03-18T11:29:59.226Z,45.00
2019-03-18T11:32:29.366Z,43.60
2019-03-18T11:34:59.522Z,43.60
2019-03-18T11:37:29.517Z,42.40
2019-03-18T11:39:59.904Z,42.80
2019-03-18T11:42:30.103Z,42.30
2019-03-18T11:45:00.267Z,43.10
2019-03-18T11:47:30.595Z,42.50
2019-03-18T11:50:10.490Z,41.80
2019-03-18T11:52:32.958Z,40.60
2019-03-18T11:55:03.089Z,42.60
2019-03-18T11:57:33.605Z,42.80
2019-03-18T12:00:05.679Z,41.70
2019-03-18T12:02:35.877Z,45.70
2019-03-18T12:05:11.310Z,42.20
2019-03-18T12:07:41.372Z,40.90
2019-03-18T12:10:14.499Z,43.20
2019-03-18T12:12:44.622Z,42.90
2019-03-18T12:15:21.427Z,41.90
2019-03-18T12:17:50.733Z,42.60
2019-03-18T12:20:24.690Z,43.20
2019-03-18T12:22:52.613Z,44.50
2019-03-18T12:25:22.743Z,44.50
2019-03-18T12:27:52.800Z,45.20
2019-03-18T12:30:24.793Z,43.70
2019-03-18T12:32:54.929Z,46.50
2019-03-18T12:35:25.470Z,45.40
2019-03-18T12:37:56.057Z,45.00
2019-03-18T12:40:26.537Z,44.80
2019-03-18T12:42:56.583Z,43.30
2019-03-18T12:45:26.704Z,42.80
2019-03-18T12:47:56.899Z,45.20
2019-03-18T12:50:55.111Z,45.90
2019-03-18T12:52:59.060Z,45.10
2019-03-18T12:55:29.192Z,45.10
2019-03-18T12:57:59.311Z,45.50
2019-03-18T13:00:35.161Z,45.60
2019-03-18T13:03:05.707Z,43.60
2019-03-18T13:05:35.697Z,43.20
2019-03-18T13:08:05.761Z,43.10
2019-03-18T13:10:35.951Z,43.50
2019-03-18T13:13:06.154Z,43.80
2019-03-18T13:15:36.355Z,44.30
2019-03-18T13:18:06.558Z,45.00
2019-03-18T13:20:36.546Z,44.50
2019-03-18T13:23:06.682Z,44.50
2019-03-18T13:25:36.781Z,45.60
2019-03-18T13:28:06.832Z,45.30
2019-03-18T13:30:36.994Z,43.40
2019-03-18T13:33:07.433Z,44.70
2019-03-18T13:35:37.576Z,44.60
2019-03-18T13:38:07.888Z,44.00
2019-03-18T13:40:38.013Z,46.00
2019-03-18T13:43:08.531Z,46.40
2019-03-18T13:45:39.008Z,45.70
2019-03-18T13:48:09.206Z,46.00
2019-03-18T13:50:39.347Z,44.60
2019-03-18T13:53:09.401Z,45.80
2019-03-18T13:55:39.845Z,47.20
2019-03-18T13:58:09.971Z,47.00
2019-03-18T14:00:41.108Z,46.50
2019-03-18T14:03:11.597Z,46.40
2019-03-18T14:05:41.729Z,47.30
2019-03-18T14:08:11.851Z,46.60
2019-03-18T14:10:41.970Z,45.80
2019-03-18T14:13:12.463Z,46.00
2019-03-18T14:15:42.580Z,46.80
2019-03-18T14:18:12.712Z,47.10
2019-03-18T14:20:42.832Z,46.60
2019-03-18T14:23:12.910Z,49.00
2019-03-18T14:25:45.402Z,47.10
2019-03-18T14:28:14.992Z,45.60
2019-03-18T14:30:45.037Z,46.60
2019-03-18T14:33:15.203Z,45.90
2019-03-18T14:35:45.548Z,45.30
2019-03-18T14:38:15.753Z,45.30
2019-03-18T14:40:46.205Z,46.20
2019-03-18T14:43:16.516Z,46.60
2019-03-18T14:45:46.649Z,46.10
2019-03-18T14:48:16.706Z,46.60
2019-03-18T14:50:47.194Z,47.90
2019-03-18T14:53:17.240Z,47.70
2019-03-18T14:55:48.560Z,47.70
2019-03-18T14:58:18.619Z,46.30
2019-03-18T15:00:48.673Z,46.90
2019-03-18T15:03:19.012Z,46.70
2019-03-18T15:05:49.108Z,47.30
2019-03-18T15:08:19.265Z,47.20
2019-03-18T15:10:49.311Z,46.90
2019-03-18T15:13:30.422Z,47.30
2019-03-18T15:15:51.123Z,47.70
2019-03-18T15:18:21.335Z,47.80
2019-03-18T15:20:51.906Z,48.10
2019-03-18T15:23:22.098Z,48.10
2019-03-18T15:25:52.096Z,48.80
2019-03-18T15:28:22.460Z,48.10
2019-03-18T15:30:52.436Z,48.00
2019-03-18T15:33:22.575Z,47.80
2019-03-18T15:35:52.709Z,47.60
2019-03-18T15:38:22.837Z,48.30
2019-03-18T15:40:52.996Z,48.00
2019-03-18T15:43:23.049Z,48.30
2019-03-18T15:45:53.113Z,48.80
2019-03-18T15:48:23.529Z,49.20
2019-03-18T15:50:53.594Z,49.20
2019-03-18T15:53:23.644Z,49.10
2019-03-18T15:55:53.781Z,49.50
2019-03-18T15:58:23.757Z,49.80
2019-03-18T16:00:53.754Z,50.30
2019-03-18T16:03:23.873Z,50.90
2019-03-18T16:05:53.934Z,52.30
2019-03-18T16:08:24.281Z,52.70
2019-03-18T16:10:54.709Z,52.70
2019-03-18T16:13:25.114Z,52.60
2019-03-18T16:15:55.257Z,52.80
2019-03-18T16:18:25.385Z,53.30
2019-03-18T16:20:55.449Z,52.70
2019-03-18T16:23:25.914Z,52.30
2019-03-18T16:25:55.985Z,51.30
2019-03-18T16:28:26.175Z,51.40
2019-03-18T16:30:56.309Z,50.90
2019-03-18T16:33:26.653Z,51.70
2019-03-18T16:35:56.706Z,52.60
2019-03-18T16:38:26.775Z,52.80
2019-03-18T16:40:57.053Z,52.20
2019-03-18T16:43:27.195Z,51.60
2019-03-18T16:45:57.249Z,51.50
2019-03-18T16:48:27.308Z,51.60
2019-03-18T16:50:57.737Z,51.50
2019-03-18T16:53:27.877Z,52.00
2019-03-18T16:55:57.929Z,53.20
2019-03-18T16:58:28.387Z,53.00
2019-03-18T17:00:58.446Z,53.40
2019-03-18T17:03:28.536Z,53.80
2019-03-18T17:05:58.602Z,54.30
2019-03-18T17:08:28.716Z,54.60
2019-03-18T17:10:58.788Z,54.40
2019-03-18T17:13:28.912Z,54.40
2019-03-18T17:15:59.257Z,54.40
2019-03-18T17:18:29.308Z,54.30
2019-03-18T17:20:59.689Z,54.20
2019-03-18T17:23:29.746Z,54.70
2019-03-18T17:25:59.810Z,54.80
2019-03-18T17:28:30.267Z,55.00
2019-03-18T17:31:00.254Z,54.90
2019-03-18T17:33:30.304Z,54.80
2019-03-18T17:36:00.326Z,54.90
2019-03-18T17:38:30.819Z,55.20
2019-03-18T17:41:00.908Z,55.10
2019-03-18T17:43:31.096Z,55.30
2019-03-18T17:46:01.229Z,55.00
2019-03-18T17:48:31.360Z,55.40
2019-03-18T17:51:01.420Z,55.60
2019-03-18T17:53:31.550Z,55.70
2019-03-18T17:56:01.597Z,55.40
2019-03-18T17:58:31.667Z,55.00
2019-03-18T18:01:03.755Z,55.10
2019-03-18T18:03:33.819Z,55.00
2019-03-18T18:06:04.020Z,55.20
2019-03-18T18:08:34.522Z,55.50
2019-03-18T18:11:04.577Z,55.10
2019-03-18T18:13:34.957Z,54.50
2019-03-18T18:16:05.013Z,54.30
2019-03-18T18:18:35.100Z,53.70
2019-03-18T18:21:05.520Z,53.50
2019-03-18T18:23:35.517Z,53.70
2019-03-18T18:26:05.724Z,54.20
2019-03-18T18:28:35.777Z,54.70
2019-03-18T18:31:05.837Z,54.70
2019-03-18T18:33:35.827Z,54.50
2019-03-18T18:36:06.034Z,54.90
2019-03-18T18:38:36.144Z,53.80
2019-03-18T18:41:06.204Z,54.00
2019-03-18T18:43:36.334Z,54.60
2019-03-18T18:46:06.403Z,55.60
2019-03-18T18:48:36.463Z,55.60
2019-03-18T18:51:06.863Z,54.30
2019-03-18T18:53:37.012Z,53.60
2019-03-18T18:56:07.114Z,52.50
2019-03-18T18:58:37.165Z,53.20
2019-03-18T19:01:07.593Z,52.60
2019-03-18T19:03:37.727Z,52.30
2019-03-18T19:06:07.891Z,52.50
2019-03-18T19:08:38.235Z,51.90
2019-03-18T19:11:08.373Z,51.80
2019-03-18T19:13:38.867Z,50.90
2019-03-18T19:16:08.913Z,50.60
2019-03-18T19:18:39.054Z,50.90
2019-03-18T19:21:09.113Z,49.70
2019-03-18T19:23:39.544Z,49.10
2019-03-18T19:26:09.968Z,49.10
2019-03-18T19:28:40.403Z,49.40
2019-03-18T19:31:10.831Z,49.00
2019-03-18T19:33:41.318Z,49.10
2019-03-18T19:36:11.804Z,49.60
2019-03-18T19:38:42.306Z,50.10
2019-03-18T19:41:12.734Z,50.00
2019-03-18T19:43:43.265Z,54.30
2019-03-18T19:46:13.395Z,50.20
2019-03-18T19:48:43.531Z,47.40
2019-03-18T19:51:13.821Z,48.50
2019-03-18T19:53:49.009Z,49.00
2019-03-18T19:56:15.911Z,46.70
2019-03-18T19:58:46.042Z,45.80
2019-03-18T20:01:16.089Z,44.80
2019-03-18T20:03:46.359Z,45.20
2019-03-18T20:06:16.543Z,44.40
2019-03-18T20:08:46.618Z,46.00
2019-03-18T20:11:17.035Z,46.90
2019-03-18T20:13:48.240Z,43.50
2019-03-18T20:16:18.298Z,43.20
2019-03-18T20:18:50.076Z,43.30
2019-03-18T20:21:20.390Z,43.10
2019-03-18T20:24:00.349Z,44.10
2019-03-18T20:26:22.066Z,43.70
2019-03-18T20:28:52.190Z,43.30
2019-03-18T20:31:26.128Z,47.80
2019-03-18T20:33:54.063Z,44.20
2019-03-18T20:36:24.131Z,47.00
2019-03-18T20:38:54.190Z,43.50
2019-03-18T20:41:24.322Z,44.20
2019-03-18T20:43:54.317Z,43.50
2019-03-18T20:46:24.413Z,49.20
2019-03-18T20:48:54.835Z,46.10
2019-03-18T20:51:25.001Z,43.80
2019-03-18T20:53:55.320Z,46.50
2019-03-18T20:56:25.453Z,45.70
2019-03-18T20:58:55.980Z,45.70
2019-03-18T21:01:26.286Z,43.80
2019-03-18T21:03:56.719Z,44.40
2019-03-18T21:06:26.915Z,43.30
2019-03-18T21:08:56.982Z,45.80
2019-03-18T21:11:27.111Z,44.30
2019-03-18T21:13:58.323Z,44.90
2019-03-18T21:16:28.382Z,46.10
2019-03-18T21:18:58.589Z,45.10
2019-03-18T21:21:28.790Z,42.60
2019-03-18T21:23:58.935Z,46.60
2019-03-18T21:26:29.041Z,43.60
2019-03-18T21:28:59.556Z,47.10
2019-03-18T21:31:30.669Z,43.30
2019-03-18T21:34:01.121Z,43.20
2019-03-18T21:36:37.974Z,42.90
2019-03-18T21:39:04.542Z,43.40
2019-03-18T21:41:34.632Z,43.60
2019-03-18T21:44:05.281Z,43.80
2019-03-18T21:46:35.278Z,44.10
2019-03-18T21:49:05.338Z,45.90
2019-03-18T21:51:35.749Z,45.70
2019-03-18T21:54:05.812Z,45.40
2019-03-18T21:56:35.947Z,46.70
2019-03-18T21:59:06.065Z,44.10
2019-03-18T22:01:36.200Z,45.00
2019-03-18T22:04:06.262Z,44.80
2019-03-18T22:06:36.358Z,45.10
2019-03-18T22:09:07.760Z,44.40
2019-03-18T22:11:37.759Z,45.90
2019-03-18T22:14:07.896Z,46.40
2019-03-18T22:16:37.953Z,46.60
2019-03-18T22:19:08.421Z,45.30
2019-03-18T22:21:38.554Z,45.80
2019-03-18T22:24:08.748Z,45.70
2019-03-18T22:26:39.266Z,45.00
2019-03-18T22:29:09.467Z,45.90
2019-03-18T22:31:39.590Z,45.30
2019-03-18T22:34:09.734Z,45.50
2019-03-18T22:36:39.855Z,45.50
2019-03-18T22:39:10.070Z,47.60
2019-03-18T22:41:40.051Z,49.30
2019-03-18T22:44:10.515Z,51.10
2019-03-18T22:46:40.934Z,51.10
2019-03-18T22:49:11.068Z,49.70
2019-03-18T22:51:41.189Z,49.30
2019-03-18T22:54:11.710Z,48.80
2019-03-18T22:56:41.764Z,49.80
2019-03-18T22:59:12.150Z,50.00
2019-03-18T23:01:42.357Z,48.90
2019-03-18T23:04:12.485Z,49.50
2019-03-18T23:06:42.557Z,48.60
2019-03-18T23:09:12.672Z,48.20
2019-03-18T23:11:43.814Z,49.40
2019-03-18T23:14:14.308Z,47.90
2019-03-18T23:16:44.457Z,50.70
2019-03-18T23:19:14.500Z,48.60
2019-03-18T23:21:44.499Z,49.20
2019-03-18T23:24:14.622Z,48.50
2019-03-18T23:26:45.210Z,49.40
2019-03-18T23:29:15.270Z,49.10
2019-03-18T23:31:45.338Z,51.10
2019-03-18T23:34:15.401Z,48.80
2019-03-18T23:36:45.755Z,49.00
2019-03-18T23:39:16.089Z,48.20
2019-03-18T23:41:46.292Z,50.50
2019-03-18T23:44:16.423Z,49.10
2019-03-18T23:46:46.991Z,50.00
2019-03-18T23:49:17.321Z,51.20
2019-03-18T23:51:47.832Z,50.70
2019-03-18T23:54:17.900Z,49.50
2019-03-18T23:56:48.386Z,50.40
2019-03-18T23:59:19.012Z,52.10
